Time;durP1;ratioP1;P1;durP2;ratioP2;P2;SDS_P1;SDS_P2;PMS_P1;PMS_P2;Temp;Humidity;BMP_temperature;BMP_pressure;BME280_temperature;BME280_humidity;BME280_pressure;Samples;Min_cycle;Max_cycle;Signal;HPM_P1;HPM_P2
2023/04/03 00:02:02;;;;;;;;;0.00;0.00;;;;;8.90;86.55;99447.44;5069522;28;45815;-77
2023/04/03 00:04:27;;;;;;;;;0.00;0.00;;;;;8.91;85.87;99454.41;5033894;28;45514;-76
2023/04/03 00:06:53;;;;;;;;;0.00;0.00;;;;;8.91;86.12;99439.50;5033962;28;45494;-76
2023/04/03 00:09:18;;;;;;;;;0.25;0.25;;;;;8.93;85.21;99458.72;5034153;28;45756;-77
2023/04/03 00:11:44;;;;;;;;;0.00;0.00;;;;;8.94;85.68;99447.31;5047647;28;45349;-77
2023/04/03 00:14:09;;;;;;;;;1.00;1.00;;;;;8.97;85.54;99456.88;5053670;28;45369;-77
2023/04/03 00:16:35;;;;;;;;;0.00;0.00;;;;;8.98;85.75;99446.31;5052867;28;45555;-77
2023/04/03 00:19:00;;;;;;;;;1.00;1.00;;;;;9.00;85.20;99447.16;5040288;28;46617;-77
2023/04/03 00:21:25;;;;;;;;;0.00;0.00;;;;;9.02;85.15;99444.47;5054103;28;45491;-76
2023/04/03 00:23:51;;;;;;;;;0.50;0.50;;;;;9.02;85.23;99447.97;5069623;28;45454;-77
2023/04/03 00:26:16;;;;;;;;;0.50;0.50;;;;;9.03;85.07;99440.94;5053946;28;45553;-76
2023/04/03 00:28:42;;;;;;;;;0.00;0.00;;;;;9.04;84.94;99434.78;5054022;28;45525;-76
2023/04/03 00:31:07;;;;;;;;;0.00;0.00;;;;;9.05;84.84;99432.06;5040483;28;45411;-76
2023/04/03 00:33:33;;;;;;;;;0.25;0.25;;;;;9.07;84.57;99424.16;5032806;28;45513;-76
2023/04/03 00:35:58;;;;;;;;;0.75;0.00;;;;;9.08;84.49;99428.50;5046351;28;45468;-78
2023/04/03 00:38:23;;;;;;;;;1.00;1.00;;;;;9.10;85.11;99432.81;5047275;28;46166;-78
2023/04/03 00:40:49;;;;;;;;;0.00;0.00;;;;;9.08;85.30;99426.72;5044596;28;45541;-78
2023/04/03 00:43:21;;;;;;;;;0.00;0.00;;;;;9.06;85.44;99435.56;5053450;28;45447;-78
2023/04/03 00:45:49;;;;;;;;;2.00;1.50;;;;;9.05;85.42;99429.44;5051452;28;45491;-77
2023/04/03 00:48:22;;;;;;;;;0.50;0.50;;;;;9.04;85.56;99429.50;5053382;28;46022;-77
2023/04/03 00:50:48;;;;;;;;;0.00;0.00;;;;;9.03;85.56;99427.78;5057426;28;45528;-77
2023/04/03 00:53:22;;;;;;;;;0.00;0.00;;;;;9.04;85.82;99447.94;5045675;28;45552;-77
2023/04/03 00:55:50;;;;;;;;;0.00;0.00;;;;;9.01;86.02;99422.56;5034716;28;45489;-77
2023/04/03 00:58:19;;;;;;;;;1.00;1.00;;;;;9.00;86.40;99434.00;5053430;28;46464;-77
2023/04/03 01:00:50;;;;;;;;;0.00;0.00;;;;;8.99;86.16;99434.91;5053078;28;45340;-77
2023/04/03 01:03:15;;;;;;;;;0.75;0.75;;;;;8.98;86.45;99430.53;5053673;28;45459;-77
2023/04/03 01:05:41;;;;;;;;;1.00;0.00;;;;;8.99;86.21;99426.16;5052892;28;45363;-77
2023/04/03 01:08:06;;;;;;;;;0.00;0.00;;;;;8.98;86.05;99419.16;5052284;28;46258;-76
2023/04/03 01:10:31;;;;;;;;;1.75;0.50;;;;;8.97;86.47;99426.19;5049449;28;45392;-77
2023/04/03 01:12:59;;;;;;;;;0.00;0.00;;;;;8.98;86.21;99427.06;5043825;28;45415;-78
2023/04/03 01:15:28;;;;;;;;;0.00;0.00;;;;;8.97;86.28;99425.31;5053291;28;45496;-75
2023/04/03 01:17:57;;;;;;;;;0.50;0.50;;;;;8.97;86.68;99436.72;5053210;28;45509;-77
2023/04/03 01:20:31;;;;;;;;;1.20;0.00;;;;;8.97;86.46;99417.44;5052897;28;45581;-78
2023/04/03 01:23:12;;;;;;;;;2.00;0.25;;;;;8.96;87.19;99419.19;5065299;28;45429;-77
2023/04/03 01:26:00;;;;;;;;;0.75;0.75;;;;;8.94;87.26;99415.75;5040420;28;45394;-77
2023/04/03 01:28:29;;;;;;;;;0.75;0.75;;;;;8.91;87.83;99404.47;5051420;28;45952;-77
2023/04/03 01:31:13;;;;;;;;;1.00;1.00;;;;;8.88;87.33;99405.41;5053005;28;45380;-78
2023/04/03 01:33:39;;;;;;;;;0.00;0.00;;;;;8.90;87.38;99405.34;5053333;28;45446;-79
2023/04/03 01:36:05;;;;;;;;;1.00;0.00;;;;;8.90;86.88;99402.72;5053109;28;45369;-80
2023/04/03 01:38:30;;;;;;;;;1.75;1.75;;;;;8.91;86.65;99402.69;5054896;28;46572;-79
2023/04/03 01:40:56;;;;;;;;;0.25;0.00;;;;;8.93;86.26;99398.25;5072175;28;45829;-78
2023/04/03 01:43:22;;;;;;;;;0.75;0.75;;;;;8.95;85.96;99412.22;5056735;28;45448;-78
2023/04/03 01:45:49;;;;;;;;;1.25;1.25;;;;;8.97;85.76;99401.66;5056381;28;45523;-78
2023/04/03 01:48:15;;;;;;;;;4.25;1.50;;;;;8.99;85.20;99402.47;5071888;28;46326;-78
2023/04/03 01:50:40;;;;;;;;;1.75;1.00;;;;;9.02;85.48;99405.88;5056152;28;45491;-79
2023/04/03 01:53:06;;;;;;;;;0.00;0.00;;;;;9.04;85.22;99401.44;5056674;28;45398;-78
2023/04/03 01:55:32;;;;;;;;;2.00;2.00;;;;;9.09;84.72;99403.91;5055903;28;45419;-78
2023/04/03 01:57:57;;;;;;;;;1.00;1.00;;;;;9.10;84.28;99395.13;5055882;28;46400;-78
2023/04/03 02:00:22;;;;;;;;;2.00;2.00;;;;;9.12;84.06;99395.94;5056023;28;45381;-79
2023/04/03 02:02:48;;;;;;;;;2.00;2.00;;;;;9.14;84.24;99401.16;5056606;28;45436;-79
2023/04/03 02:05:13;;;;;;;;;3.00;2.00;;;;;9.14;84.01;99399.41;5055228;28;45547;-78
2023/04/03 02:07:39;;;;;;;;;2.00;2.00;;;;;9.13;84.51;99381.88;5056081;28;45467;-79
2023/04/03 02:10:05;;;;;;;;;1.00;1.00;;;;;9.12;84.29;99380.16;5055935;28;45429;-79
2023/04/03 02:12:30;;;;;;;;;1.00;1.00;;;;;9.11;84.60;99381.06;5058201;28;45645;-78
2023/04/03 02:14:56;;;;;;;;;1.00;1.00;;;;;9.13;84.95;99397.66;5055834;28;45448;-77
2023/04/03 02:17:21;;;;;;;;;1.50;1.00;;;;;9.08;84.82;99403.06;5057720;28;48055;-78
2023/04/03 02:19:47;;;;;;;;;2.00;2.00;;;;;9.07;85.08;99389.94;5055519;28;45519;-78
2023/04/03 02:22:12;;;;;;;;;1.25;1.00;;;;;9.05;85.27;99397.03;5056004;28;45491;-77
2023/04/03 02:24:38;;;;;;;;;2.00;2.00;;;;;9.03;85.16;99391.84;5055507;28;45448;-77
2023/04/03 02:27:04;;;;;;;;;3.50;2.00;;;;;9.04;85.13;99400.59;5055566;28;45480;-77
2023/04/03 02:29:30;;;;;;;;;1.75;1.75;;;;;9.01;85.25;99387.53;5055530;28;45644;-77
2023/04/03 02:31:55;;;;;;;;;1.50;1.50;;;;;9.00;85.28;99389.28;5055485;28;45566;-78
2023/04/03 02:34:20;;;;;;;;;2.25;2.00;;;;;9.00;85.18;99393.69;5055442;28;45363;-78
2023/04/03 02:36:46;;;;;;;;;1.00;1.00;;;;;8.97;85.51;99393.78;5055531;27;46564;-78
2023/04/03 02:39:11;;;;;;;;;1.75;1.00;;;;;8.96;84.97;99384.16;5055721;28;45360;-78
2023/04/03 02:41:37;;;;;;;;;1.00;1.00;;;;;8.93;85.91;99386.88;5055871;28;45347;-78
2023/04/03 02:44:04;;;;;;;;;1.75;1.75;;;;;8.90;86.59;99394.84;5070841;28;45417;-81
2023/04/03 02:46:30;;;;;;;;;2.00;2.00;;;;;8.86;86.63;99391.47;5055910;28;45470;-81
2023/04/03 02:48:56;;;;;;;;;0.00;0.00;;;;;8.83;87.42;99393.31;5055159;28;45478;-81
2023/04/03 02:51:22;;;;;;;;;1.50;1.50;;;;;8.79;86.71;99383.78;5041833;28;45384;-81
2023/04/03 02:53:48;;;;;;;;;2.00;2.00;;;;;8.75;87.54;99380.38;5072092;28;45736;-81
2023/04/03 02:56:14;;;;;;;;;3.50;2.00;;;;;8.71;87.59;99379.59;5056272;28;45962;-81
2023/04/03 02:58:39;;;;;;;;;2.00;2.00;;;;;8.70;87.90;99382.28;5054908;28;45485;-81
2023/04/03 03:01:05;;;;;;;;;1.00;1.00;;;;;8.70;87.09;99382.28;5056583;28;45417;-81
2023/04/03 03:03:31;;;;;;;;;2.00;1.00;;;;;8.70;87.08;99379.66;5056358;28;45511;-80
2023/04/03 03:06:26;;;;;;;;;1.50;1.50;;;;;8.70;87.41;99380.53;5055268;28;45967;-80
2023/04/03 03:08:52;;;;;;;;;1.00;1.00;;;;;8.70;87.77;99388.41;5050693;28;45449;-80
2023/04/03 03:11:17;;;;;;;;;1.25;1.25;;;;;8.68;87.47;99378.84;5071686;28;45487;-80
2023/04/03 03:13:44;;;;;;;;;1.75;1.50;;;;;8.66;87.97;99368.38;5071023;28;45298;-78
2023/04/03 03:16:10;;;;;;;;;1.00;1.00;;;;;8.66;88.02;99385.91;5070432;28;47866;-78
2023/04/03 03:18:35;;;;;;;;;2.00;1.50;;;;;8.64;87.29;99378.06;5068134;28;45430;-78
2023/04/03 03:21:02;;;;;;;;;2.00;2.00;;;;;8.67;87.70;99370.09;5054883;28;45427;-78
2023/04/03 03:23:30;;;;;;;;;2.50;1.50;;;;;8.67;87.05;99392.88;5055013;28;45440;-79
2023/04/03 03:25:58;;;;;;;;;2.00;2.00;;;;;8.67;86.92;99366.59;5054395;28;46337;-77
2023/04/03 03:28:24;;;;;;;;;2.00;2.00;;;;;8.69;86.81;99370.91;5040568;28;45461;-77
2023/04/03 03:30:50;;;;;;;;;1.25;1.25;;;;;8.69;86.52;99365.66;5054485;28;45347;-78
2023/04/03 03:33:17;;;;;;;;;2.75;2.75;;;;;8.70;86.21;99370.03;5054143;28;45526;-77
2023/04/03 03:35:42;;;;;;;;;2.25;1.50;;;;;8.73;84.90;99369.91;5054003;28;45458;-77
2023/04/03 03:38:08;;;;;;;;;1.00;1.00;;;;;8.75;85.56;99367.22;5053557;28;45541;-78
2023/04/03 03:40:34;;;;;;;;;1.00;1.00;;;;;8.78;85.36;99366.28;5069597;28;45592;-77
2023/04/03 03:42:59;;;;;;;;;2.00;2.00;;;;;8.77;85.28;99368.06;5054409;28;45507;-77
2023/04/03 03:45:25;;;;;;;;;0.75;0.75;;;;;8.78;85.32;99372.41;5054323;28;46215;-77
2023/04/03 03:47:50;;;;;;;;;1.75;1.00;;;;;8.77;85.68;99368.06;5053790;28;45483;-77
2023/04/03 03:50:15;;;;;;;;;2.50;2.50;;;;;8.78;84.92;99375.03;5053950;28;45662;-77
2023/04/03 03:52:41;;;;;;;;;3.00;3.00;;;;;8.77;84.99;99364.56;5053556;28;45471;-78
2023/04/03 03:55:07;;;;;;;;;2.00;2.00;;;;;8.78;85.59;99371.53;5054349;28;45656;-77
2023/04/03 03:57:32;;;;;;;;;2.75;2.75;;;;;8.77;85.47;99369.81;5054000;28;45422;-77
2023/04/03 03:59:58;;;;;;;;;3.25;3.00;;;;;8.75;85.25;99369.88;5052932;28;45425;-78
2023/04/03 04:02:23;;;;;;;;;1.50;1.50;;;;;8.75;85.37;99364.59;5053834;28;45493;-78
2023/04/03 04:04:49;;;;;;;;;3.00;2.00;;;;;8.77;85.53;99364.56;5053362;28;46150;-77
2023/04/03 04:07:14;;;;;;;;;0.00;0.00;;;;;8.79;84.83;99362.75;5053929;28;45441;-77
2023/04/03 04:09:40;;;;;;;;;4.00;3.00;;;;;8.81;84.50;99374.09;5053996;28;45393;-78
2023/04/03 04:12:05;;;;;;;;;7.25;3.25;;;;;8.81;85.11;99372.31;5053884;28;45421;-78
2023/04/03 04:14:31;;;;;;;;;4.00;3.75;;;;;8.78;85.37;99366.28;5053976;28;45541;-78
2023/04/03 04:16:56;;;;;;;;;4.00;4.00;;;;;8.78;85.26;99368.91;5053929;28;45432;-78
2023/04/03 04:19:22;;;;;;;;;4.75;3.75;;;;;8.78;85.03;99371.53;5052523;28;45515;-79
2023/04/03 04:21:47;;;;;;;;;5.00;4.00;;;;;8.75;85.30;99368.09;5051230;28;45508;-78
2023/04/03 04:24:12;;;;;;;;;5.25;3.00;;;;;8.74;85.24;99371.63;5041900;28;47101;-77
2023/04/03 04:26:38;;;;;;;;;4.50;2.50;;;;;8.74;85.41;99368.13;5053644;28;45454;-78
2023/04/03 04:29:03;;;;;;;;;9.25;7.00;;;;;8.71;85.54;99369.09;5053886;28;45395;-78
2023/04/03 04:31:29;;;;;;;;;6.00;6.00;;;;;8.71;85.81;99379.59;5037600;28;45570;-78
2023/04/03 04:33:54;;;;;;;;;6.50;5.00;;;;;8.70;85.69;99356.88;5032837;28;46035;-77
2023/04/03 04:36:20;;;;;;;;;4.50;3.50;;;;;8.69;86.39;99352.53;5033362;28;45421;-78
2023/04/03 04:38:45;;;;;;;;;4.00;4.00;;;;;8.68;85.89;99369.19;5042643;28;45371;-77
2023/04/03 04:41:11;;;;;;;;;3.00;3.00;;;;;8.66;85.89;99368.38;5053101;28;45591;-78
2023/04/03 04:43:36;;;;;;;;;6.00;5.00;;;;;8.68;86.22;99366.56;5053163;28;45401;-78
2023/04/03 04:46:11;;;;;;;;;5.00;4.25;;;;;8.70;85.30;99362.13;5052395;28;45447;-77
2023/04/03 04:48:36;;;;;;;;;4.00;4.00;;;;;8.72;85.32;99351.53;5042865;28;45409;-77
2023/04/03 04:51:02;;;;;;;;;5.00;5.00;;;;;8.75;86.07;99351.47;5033112;28;45381;-77
2023/04/03 04:53:27;;;;;;;;;5.00;4.00;;;;;8.77;86.02;99354.06;5032886;28;46188;-78
2023/04/03 04:55:53;;;;;;;;;4.00;4.00;;;;;8.75;85.40;99341.81;5033162;28;45398;-78
2023/04/03 04:58:19;;;;;;;;;8.25;4.50;;;;;8.74;85.96;99365.50;5033461;28;45368;-79
2023/04/03 05:00:45;;;;;;;;;6.75;6.00;;;;;8.71;86.54;99353.31;5036549;28;45560;-78
2023/04/03 05:03:10;;;;;;;;;7.50;3.50;;;;;8.70;86.29;99351.63;5048088;28;47395;-77
2023/04/03 05:05:36;;;;;;;;;5.50;4.25;;;;;8.68;86.04;99347.31;5049649;28;45459;-78
2023/04/03 05:08:02;;;;;;;;;5.00;5.00;;;;;8.69;85.95;99349.91;5051651;28;45550;-78
2023/04/03 05:10:28;;;;;;;;;5.00;5.00;;;;;8.70;86.16;99346.38;5052703;28;45463;-78
2023/04/03 05:12:53;;;;;;;;;9.25;7.25;;;;;8.70;85.79;99341.09;5068901;28;46635;-78
2023/04/03 05:15:19;;;;;;;;;5.00;5.00;;;;;8.72;85.61;99348.91;5054844;28;45476;-77
2023/04/03 05:17:45;;;;;;;;;4.75;4.75;;;;;8.72;85.65;99351.53;5071313;28;45512;-78
2023/04/03 05:20:10;;;;;;;;;2.75;2.75;;;;;8.73;85.66;99361.16;5055120;28;45501;-78
2023/04/03 05:22:36;;;;;;;;;3.00;2.50;;;;;8.75;85.29;99348.84;5070944;28;46814;-78
2023/04/03 05:25:01;;;;;;;;;7.50;6.00;;;;;8.77;85.13;99349.66;5054845;28;45420;-80
2023/04/03 05:27:28;;;;;;;;;4.00;4.00;;;;;8.78;84.59;99351.38;5057330;28;45468;-82
2023/04/03 05:29:54;;;;;;;;;6.00;5.00;;;;;8.82;84.46;99353.03;5056416;28;45389;-68
2023/04/03 05:32:20;;;;;;;;;5.00;5.00;;;;;8.89;84.47;99348.41;5055075;28;46247;-63
2023/04/03 05:34:46;;;;;;;;;3.00;3.00;;;;;8.94;83.13;99352.66;5054526;28;45373;-63
2023/04/03 05:37:11;;;;;;;;;5.00;4.00;;;;;8.98;83.41;99351.66;5055376;28;45389;-62
2023/04/03 05:39:40;;;;;;;;;3.00;3.00;;;;;9.03;83.37;99347.13;5055387;28;45667;-64
2023/04/03 05:42:06;;;;;;;;;4.00;3.00;;;;;9.08;82.83;99349.59;5055583;28;46207;-63
2023/04/03 05:44:31;;;;;;;;;5.50;5.00;;;;;9.13;82.87;99352.09;5055540;28;45770;-63
2023/04/03 05:46:56;;;;;;;;;3.75;3.50;;;;;9.15;82.72;99348.53;5055339;28;45317;-64
2023/04/03 05:49:22;;;;;;;;;4.75;4.75;;;;;9.17;82.77;99353.72;5054743;28;45523;-63
2023/04/03 05:51:47;;;;;;;;;10.50;6.00;;;;;9.20;82.72;99356.28;5054844;28;45353;-64
2023/04/03 05:54:18;;;;;;;;;4.50;4.25;;;;;9.21;82.69;99355.38;5055169;28;45384;-64
2023/04/03 05:56:43;;;;;;;;;5.00;4.50;;;;;9.23;82.79;99353.53;5055766;28;45496;-64
2023/04/03 05:59:09;;;;;;;;;15.67;15.67;;;;;9.23;82.77;99353.53;5054498;28;45516;-63
2023/04/03 06:01:34;;;;;;;;;6.25;5.00;;;;;9.23;82.74;99351.75;5054675;28;45989;-63
2023/04/03 06:04:00;;;;;;;;;5.00;5.00;;;;;9.23;83.07;99358.78;5054526;28;45562;-65
2023/04/03 06:06:26;;;;;;;;;5.00;5.00;;;;;9.26;83.01;99353.44;5054793;28;45529;-64
2023/04/03 06:08:52;;;;;;;;;6.00;6.00;;;;;9.26;83.13;99356.06;5054937;28;45407;-64
2023/04/03 06:11:17;;;;;;;;;5.00;4.00;;;;;9.27;82.86;99353.41;5055020;28;46084;-64
2023/04/03 06:13:42;;;;;;;;;3.75;3.50;;;;;9.30;82.66;99362.97;5054368;28;45467;-63
2023/04/03 06:16:15;;;;;;;;;5.00;5.00;;;;;9.33;82.71;99349.72;5047075;28;45718;-69
2023/04/03 06:18:41;;;;;;;;;4.25;4.25;;;;;9.33;82.84;99363.75;5054583;28;45713;-64
2023/04/03 06:21:07;;;;;;;;;4.25;4.00;;;;;9.32;82.86;99359.38;5054692;28;45547;-67
2023/04/03 06:23:33;;;;;;;;;6.25;5.50;;;;;9.33;82.97;99352.34;5054407;28;45360;-79
2023/04/03 06:25:58;;;;;;;;;9.75;6.50;;;;;9.35;82.93;99363.69;5054369;28;45597;-63
2023/04/03 06:28:24;;;;;;;;;5.00;4.25;;;;;9.36;82.64;99360.16;5054877;28;45626;-64
2023/04/03 06:30:49;;;;;;;;;6.50;4.50;;;;;9.39;82.71;99360.88;5054741;28;46282;-63
2023/04/03 06:33:15;;;;;;;;;2.00;2.00;;;;;9.43;82.05;99362.53;5047041;28;45681;-62
2023/04/03 06:35:40;;;;;;;;;3.25;2.50;;;;;9.47;81.70;99350.13;5044322;28;45532;-62
2023/04/03 06:38:09;;;;;;;;;5.75;5.75;;;;;9.53;81.61;99352.59;5052314;27;45390;-63
2023/04/03 06:40:35;;;;;;;;;3.50;2.50;;;;;9.58;81.25;99360.31;5074268;27;46609;-68
2023/04/03 06:43:01;;;;;;;;;1.00;1.00;;;;;9.60;80.33;99351.47;5051768;28;45424;-70
2023/04/03 06:45:27;;;;;;;;;2.00;2.00;;;;;9.61;79.54;99358.44;5043917;28;45658;-64
2023/04/03 06:47:53;;;;;;;;;1.00;1.00;;;;;9.62;79.74;99359.31;5051955;28;45566;-67
2023/04/03 06:50:18;;;;;;;;;3.00;2.00;;;;;9.63;79.32;99359.25;5033208;28;45401;-67
2023/04/03 06:52:44;;;;;;;;;2.00;2.00;;;;;9.64;80.03;99365.38;5044443;28;45531;-67
2023/04/03 06:55:10;;;;;;;;;2.00;2.00;;;;;9.64;79.44;99366.25;5066211;28;45599;-66
2023/04/03 06:57:36;;;;;;;;;2.50;2.50;;;;;9.64;78.67;99370.66;5051358;28;45397;-66
2023/04/03 07:00:04;;;;;;;;;1.50;1.25;;;;;9.66;79.09;99368.84;5053294;28;45495;-66
2023/04/03 07:02:29;;;;;;;;;1.75;1.75;;;;;9.69;79.00;99363.47;5050247;28;45413;-67
2023/04/03 07:04:54;;;;;;;;;1.00;1.00;;;;;9.72;79.21;99369.47;5053739;28;45380;-69
2023/04/03 07:07:20;;;;;;;;;1.00;1.00;;;;;9.72;79.73;99366.84;5054725;28;45508;-68
2023/04/03 07:09:47;;;;;;;;;3.75;2.00;;;;;9.77;78.99;99366.69;5054513;28;45823;-68
2023/04/03 07:12:13;;;;;;;;;2.25;2.00;;;;;9.80;79.00;99359.56;5054541;28;45494;-68
2023/04/03 07:14:39;;;;;;;;;2.00;2.00;;;;;9.85;78.47;99367.31;5054372;28;45409;-69
2023/04/03 07:17:04;;;;;;;;;0.25;0.25;;;;;9.88;78.22;99364.59;5059253;28;45420;-68
2023/04/03 07:19:30;;;;;;;;;1.00;1.00;;;;;9.90;78.33;99372.41;5058396;28;45516;-70
2023/04/03 07:21:55;;;;;;;;;1.00;0.75;;;;;9.94;78.55;99372.28;5050037;28;45781;-69
2023/04/03 07:24:21;;;;;;;;;1.75;1.00;;;;;9.97;77.72;99366.91;5043059;28;45377;-69
2023/04/03 07:26:51;;;;;;;;;1.75;1.75;;;;;9.98;77.80;99368.63;5052231;28;45425;-70
2023/04/03 07:29:16;;;;;;;;;1.00;1.00;;;;;9.98;77.23;99379.16;5077539;27;47213;-67
2023/04/03 07:31:43;;;;;;;;;1.00;1.00;;;;;9.97;77.34;99372.19;5049854;27;45397;-67
2023/04/03 07:34:08;;;;;;;;;1.00;1.00;;;;;9.97;77.89;99368.69;5056865;28;45492;-69
2023/04/03 07:36:33;;;;;;;;;2.00;2.00;;;;;9.99;77.70;99380.88;5033505;28;45381;-69
2023/04/03 07:38:59;;;;;;;;;4.50;3.00;;;;;10.02;77.30;99375.53;5046867;28;45374;-69
2023/04/03 07:41:24;;;;;;;;;2.25;2.25;;;;;10.03;77.00;99374.63;5054322;28;45336;-69
2023/04/03 07:43:49;;;;;;;;;3.00;3.00;;;;;10.06;77.20;99361.31;5069892;28;45522;-68
2023/04/03 07:46:15;;;;;;;;;2.00;1.00;;;;;10.08;76.60;99371.81;5053786;28;45348;-69
2023/04/03 07:48:41;;;;;;;;;2.00;2.00;;;;;10.10;77.08;99362.06;5054066;28;46485;-68
2023/04/03 07:51:06;;;;;;;;;3.00;3.00;;;;;10.10;76.53;99367.34;5053456;28;45379;-69
2023/04/03 07:53:33;;;;;;;;;4.00;4.00;;;;;10.08;77.23;99367.38;5053614;28;45457;-69
2023/04/03 07:55:59;;;;;;;;;5.50;5.50;;;;;10.07;76.96;99365.66;5053460;28;45419;-68
2023/04/03 07:58:25;;;;;;;;;3.75;3.75;;;;;10.12;77.52;99362.88;5053860;28;46586;-68
2023/04/03 08:00:51;;;;;;;;;7.00;5.75;;;;;10.15;77.38;99366.28;5068890;28;45455;-68
2023/04/03 08:03:17;;;;;;;;;6.25;5.75;;;;;10.17;77.37;99365.38;5053818;28;45531;-68
2023/04/03 08:05:46;;;;;;;;;4.00;4.00;;;;;10.13;77.45;99359.34;5036160;28;45491;-69
2023/04/03 08:08:15;;;;;;;;;7.00;5.50;;;;;10.15;77.48;99365.41;5053755;28;46364;-69
2023/04/03 08:10:40;;;;;;;;;7.00;5.00;;;;;10.14;77.43;99372.47;5053548;28;45537;-69
2023/04/03 08:13:06;;;;;;;;;6.00;5.00;;;;;10.13;77.16;99369.88;5053870;28;45411;-69
2023/04/03 08:15:32;;;;;;;;;4.50;4.50;;;;;10.15;77.34;99368.06;5054134;28;45401;-69
2023/04/03 08:17:59;;;;;;;;;7.25;4.00;;;;;10.16;77.00;99369.78;5054572;28;45396;-69
2023/04/03 08:20:25;;;;;;;;;8.75;7.00;;;;;10.18;76.88;99367.97;5053202;28;45457;-69
2023/04/03 08:22:51;;;;;;;;;5.00;5.00;;;;;10.19;77.40;99372.34;5042200;28;45326;-69
2023/04/03 08:25:17;;;;;;;;;6.50;5.50;;;;;10.24;77.02;99370.38;5051279;28;45521;-69
2023/04/03 08:27:42;;;;;;;;;5.25;5.00;;;;;10.28;76.56;99376.41;5053450;28;46353;-69
2023/04/03 08:30:08;;;;;;;;;6.75;4.75;;;;;10.28;76.06;99365.88;5063692;28;45388;-70
2023/04/03 08:32:35;;;;;;;;;2.00;2.00;;;;;10.30;75.97;99375.47;5061582;28;45499;-69
2023/04/03 08:35:01;;;;;;;;;9.00;7.50;;;;;10.34;76.38;99374.44;5056949;28;45520;-70
2023/04/03 08:37:27;;;;;;;;;7.00;5.50;;;;;10.37;76.43;99387.53;5053672;28;45347;-69
2023/04/03 08:39:53;;;;;;;;;5.50;5.50;;;;;10.40;76.34;99373.34;5050228;28;45334;-69
2023/04/03 08:42:41;;;;;;;;;7.25;6.50;;;;;10.46;76.40;99378.41;5053668;28;45410;-68
2023/04/03 08:45:27;;;;;;;;;7.25;6.75;;;;;10.48;76.56;99359.00;5053623;28;45495;-69
2023/04/03 08:48:00;;;;;;;;;8.25;6.00;;;;;10.54;75.79;99367.63;5052400;28;46527;-69
2023/04/03 08:50:50;;;;;;;;;6.25;5.50;;;;;10.56;76.57;99373.69;5052952;28;45423;-69
2023/04/03 08:53:20;;;;;;;;;7.00;7.00;;;;;10.60;76.40;99362.97;5044083;28;45591;-69
2023/04/03 08:55:49;;;;;;;;;6.00;3.75;;;;;10.63;76.27;99367.25;5033302;28;45477;-68
2023/04/03 08:58:23;;;;;;;;;8.50;8.50;;;;;10.64;76.27;99364.56;5033170;28;46483;-69
2023/04/03 09:01:03;;;;;;;;;8.00;8.00;;;;;10.67;76.36;99367.09;5037443;28;45440;-69
2023/04/03 09:03:32;;;;;;;;;7.00;6.00;;;;;10.69;76.09;99360.00;5053361;28;45536;-69
2023/04/03 09:06:05;;;;;;;;;7.25;6.50;;;;;10.72;75.91;99364.31;5052997;28;45476;-68
2023/04/03 09:08:43;;;;;;;;;6.00;6.00;;;;;10.76;74.83;99356.19;5053056;28;45516;-71
2023/04/03 09:11:28;;;;;;;;;7.00;7.00;;;;;10.75;74.58;99367.66;5068068;28;45500;-69
2023/04/03 09:14:05;;;;;;;;;7.75;6.00;;;;;10.76;74.60;99353.56;5053332;28;45446;-69
2023/04/03 09:16:43;;;;;;;;;7.75;7.75;;;;;10.78;75.06;99346.47;5053054;28;45447;-69
2023/04/03 09:19:17;;;;;;;;;10.50;7.25;;;;;10.81;73.78;99358.69;5040425;28;46453;-69
2023/04/03 09:21:42;;;;;;;;;10.50;7.50;;;;;10.83;74.29;99335.75;5053057;28;45426;-69
2023/04/03 09:24:13;;;;;;;;;7.50;7.50;;;;;10.87;74.04;99340.00;5053173;28;45420;-69
2023/04/03 09:26:52;;;;;;;;;5.25;5.25;;;;;10.92;74.28;99342.44;5053055;28;45380;-69
2023/04/03 09:29:21;;;;;;;;;5.00;5.00;;;;;10.95;73.52;99337.91;5060509;28;45433;-69
2023/04/03 09:31:49;;;;;;;;;5.50;4.75;;;;;10.94;73.95;99344.09;5054442;27;45499;-68
2023/04/03 09:34:27;;;;;;;;;4.75;4.50;;;;;10.94;73.84;99335.34;5053098;28;45420;-68
2023/04/03 09:36:59;;;;;;;;;7.00;7.00;;;;;10.93;73.64;99336.25;5052949;28;45366;-69
2023/04/03 09:39:26;;;;;;;;;10.50;10.50;;;;;10.90;73.63;99339.00;5053163;28;46710;-69
2023/04/03 09:42:03;;;;;;;;;6.00;6.00;;;;;10.88;74.33;99339.09;5052152;28;45371;-69
2023/04/03 09:44:36;;;;;;;;;6.00;4.00;;;;;10.82;74.27;99340.16;5036676;28;45427;-69
2023/04/03 09:47:36;;;;;;;;;5.25;5.25;;;;;10.77;74.07;99328.06;5032297;28;45491;-68
2023/04/03 09:50:18;;;;;;;;;9.25;8.00;;;;;10.78;74.95;99341.19;5051625;28;45706;-69
2023/04/03 09:52:46;;;;;;;;;8.00;7.00;;;;;10.79;74.72;99335.00;5052430;28;45408;-69
2023/04/03 09:55:18;;;;;;;;;9.00;9.00;;;;;10.80;74.36;99331.44;5049760;28;45491;-69
2023/04/03 09:57:45;;;;;;;;;9.25;7.25;;;;;10.88;74.73;99327.69;5052405;28;45407;-69
2023/04/03 10:00:26;;;;;;;;;10.50;10.50;;;;;10.94;74.46;99327.41;5051406;28;46163;-67
2023/04/03 10:02:55;;;;;;;;;5.00;4.50;;;;;10.98;74.12;99318.47;5048582;28;45434;-67
2023/04/03 10:05:35;;;;;;;;;4.00;4.00;;;;;11.02;73.86;99325.38;5056070;28;45388;-66
2023/04/03 10:08:13;;;;;;;;;7.00;7.00;;;;;11.04;73.48;99328.81;5055656;28;45522;-65
2023/04/03 10:10:49;;;;;;;;;7.75;7.25;;;;;11.04;73.43;99321.75;5054517;28;46400;-67
2023/04/03 10:13:20;;;;;;;;;4.75;4.00;;;;;11.08;73.20;99306.63;5055679;28;45433;-69
2023/04/03 10:16:08;;;;;;;;;4.25;4.00;;;;;11.10;72.73;99323.28;5055704;28;45447;-67
2023/04/03 10:18:43;;;;;;;;;8.25;7.50;;;;;11.07;72.54;99305.78;5068546;28;45460;-68
2023/04/03 10:21:36;;;;;;;;;8.25;8.25;;;;;11.08;72.87;99304.84;5053845;28;46338;-68
2023/04/03 10:24:14;;;;;;;;;7.00;7.00;;;;;11.05;72.97;99301.50;5041634;28;45387;-67
2023/04/03 10:26:39;;;;;;;;;6.50;5.75;;;;;11.06;72.91;99304.06;5061246;27;45384;-68
2023/04/03 10:29:20;;;;;;;;;6.25;6.25;;;;;11.08;72.72;99322.47;5047218;28;45349;-67
2023/04/03 10:31:54;;;;;;;;;7.00;7.00;;;;;11.10;72.55;99291.59;5056076;28;46187;-67
2023/04/03 10:34:35;;;;;;;;;5.50;5.50;;;;;11.13;71.97;99302.03;5055077;28;45495;-65
2023/04/03 10:37:25;;;;;;;;;5.00;5.00;;;;;11.18;71.99;99290.41;5046744;28;45647;-66
2023/04/03 10:40:18;;;;;;;;;5.50;5.50;;;;;11.22;72.19;99296.41;5035352;28;45445;-67
2023/04/03 10:43:01;;;;;;;;;11.25;8.00;;;;;11.24;72.01;99289.28;5035235;28;46166;-67
2023/04/03 10:45:35;;;;;;;;;6.75;6.75;;;;;11.23;71.51;99302.56;5035212;28;45469;-66
2023/04/03 10:48:35;;;;;;;;;4.00;4.00;;;;;11.24;71.78;99277.84;5034693;28;45534;-67
2023/04/03 10:51:14;;;;;;;;;7.50;7.25;;;;;11.26;71.60;99268.97;5033675;28;45468;-66
2023/04/03 10:53:43;;;;;;;;;4.00;4.00;;;;;11.28;72.06;99275.03;5034655;28;45405;-67
2023/04/03 10:56:15;;;;;;;;;7.00;5.50;;;;;11.31;72.24;99274.06;5039286;28;45418;-67
2023/04/03 10:58:58;;;;;;;;;4.75;4.00;;;;;11.37;70.33;99273.81;5042116;28;45462;-67
2023/04/03 11:01:31;;;;;;;;;7.00;4.00;;;;;11.38;69.36;99255.28;5043646;28;45408;-67
2023/04/03 11:03:59;;;;;;;;;5.25;4.00;;;;;11.41;69.39;99272.75;5054014;28;45695;-67
2023/04/03 11:06:38;;;;;;;;;6.00;4.60;;;;;11.41;69.16;99283.31;5054564;28;45397;-67
2023/04/03 11:09:22;;;;;;;;;2.00;2.00;;;;;11.44;68.90;99257.66;5054486;28;45476;-68
2023/04/03 11:11:51;;;;;;;;;4.25;4.25;;;;;11.47;67.23;99236.41;5051477;28;45467;-67
2023/04/03 11:14:27;;;;;;;;;4.00;2.75;;;;;11.54;66.59;99243.16;5034514;28;45426;-67
2023/04/03 11:17:11;;;;;;;;;2.60;2.60;;;;;11.61;67.01;99237.59;5036137;28;45413;-66
2023/04/03 11:19:43;;;;;;;;;2.25;2.25;;;;;11.68;65.82;99250.50;5054464;28;45451;-67
2023/04/03 11:22:38;;;;;;;;;3.75;3.00;;;;;11.75;66.20;99216.75;5054262;28;45466;-67
2023/04/03 11:25:12;;;;;;;;;2.50;2.50;;;;;11.84;66.11;99226.97;5041577;28;47232;-67
2023/04/03 11:27:43;;;;;;;;;1.40;1.40;;;;;11.93;65.01;99226.53;5034482;28;45481;-67
2023/04/03 11:30:30;;;;;;;;;4.00;2.50;;;;;12.02;64.59;99214.72;5057615;28;45451;-67
2023/04/03 11:33:12;;;;;;;;;5.00;3.00;;;;;12.08;63.17;99204.72;5054437;28;45379;-67
2023/04/03 11:35:43;;;;;;;;;3.75;2.00;;;;;12.11;63.40;99198.44;5054248;28;46138;-69
2023/04/03 11:38:19;;;;;;;;;5.60;4.00;;;;;12.12;64.14;99187.81;5054445;28;45412;-67
2023/04/03 11:40:46;;;;;;;;;3.00;3.00;;;;;12.11;64.51;99195.81;5054286;28;45382;-67
2023/04/03 11:43:29;;;;;;;;;2.75;2.75;;;;;12.12;64.29;99203.66;5053610;28;45572;-67
2023/04/03 11:46:05;;;;;;;;;5.00;4.00;;;;;12.09;63.81;99197.66;5049859;28;45510;-67
2023/04/03 11:48:31;;;;;;;;;3.00;3.00;;;;;12.08;64.44;99195.94;5043111;28;45389;-67